Time;durP1;ratioP1;P1;durP2;ratioP2;P2;SDS_P1;SDS_P2;PMS_P1;PMS_P2;Temp;Humidity;BMP_temperature;BMP_pressure;BME280_temperature;BME280_humidity;BME280_pressure;Samples;Min_cycle;Max_cycle;Signal;HPM_P1;HPM_P2
2021/04/12 00:01:16;;;;;;;1.63;1.00;;;;;;;;;;5082439;28;31944;-74
2021/04/12 00:03:44;;;;;;;2.10;0.85;;;;;;;;;;5081997;28;32987;-73
2021/04/12 00:06:13;;;;;;;1.70;0.95;;;;;;;;;;5082516;28;32539;-72
2021/04/12 00:08:48;;;;;;;3.85;1.00;;;;;;;;;;5082336;28;33259;-74
2021/04/12 00:11:13;;;;;;;1.92;0.93;;;;;;;;;;5081131;28;31192;-73
2021/04/12 00:13:48;;;;;;;4.05;1.48;;;;;;;;;;5082270;28;32778;-74
2021/04/12 00:16:21;;;;;;;10.48;3.08;;;;;;;;;;5082288;28;33632;-73
2021/04/12 00:18:52;;;;;;;4.28;1.40;;;;;;;;;;5082133;28;32145;-74
2021/04/12 00:21:26;;;;;;;2.53;1.25;;;;;;;;;;5081250;28;31855;-75
2021/04/12 00:24:06;;;;;;;5.43;1.30;;;;;;;;;;5082160;28;32923;-75
2021/04/12 00:26:38;;;;;;;6.00;1.33;;;;;;;;;;5081576;28;30992;-73
2021/04/12 00:29:07;;;;;;;3.35;1.67;;;;;;;;;;5082169;28;32245;-73
2021/04/12 00:31:35;;;;;;;2.60;1.08;;;;;;;;;;5082208;28;32874;-75
2021/04/12 00:34:09;;;;;;;6.03;1.40;;;;;;;;;;5081994;28;32079;-73
2021/04/12 00:37:00;;;;;;;3.97;1.48;;;;;;;;;;5079306;28;32732;-74
2021/04/12 00:39:31;;;;;;;6.07;2.42;;;;;;;;;;5081021;28;32411;-74
2021/04/12 00:42:16;;;;;;;4.75;1.30;;;;;;;;;;5081857;28;32955;-73
2021/04/12 00:45:04;;;;;;;4.78;1.40;;;;;;;;;;5081686;28;32007;-73
2021/04/12 00:47:36;;;;;;;4.60;1.65;;;;;;;;;;5069752;28;31159;-74
2021/04/12 00:50:20;;;;;;;4.82;1.52;;;;;;;;;;5081040;28;33150;-74
2021/04/12 00:52:54;;;;;;;4.75;1.60;;;;;;;;;;5081612;28;32790;-74
2021/04/12 00:55:58;;;;;;;5.97;1.80;;;;;;;;;;5081848;28;32103;-74
2021/04/12 00:58:24;;;;;;;5.13;1.90;;;;;;;;;;5078768;28;32621;-74
2021/04/12 01:01:09;;;;;;;4.53;2.60;;;;;;;;;;5079583;28;32353;-74
2021/04/12 01:03:38;;;;;;;4.13;2.13;;;;;;;;;;5071518;28;30323;-74
2021/04/12 01:06:10;;;;;;;9.00;2.25;;;;;;;;;;5081400;28;32101;-74
2021/04/12 01:08:48;;;;;;;5.40;2.30;;;;;;;;;;5078723;28;32498;-74
2021/04/12 01:11:27;;;;;;;3.30;1.75;;;;;;;;;;5078835;28;38215;-74
2021/04/12 01:14:28;;;;;;;5.95;1.88;;;;;;;;;;5078972;28;32000;-74
2021/04/12 01:17:00;;;;;;;7.25;2.08;;;;;;;;;;5079082;28;32077;-75
2021/04/12 01:19:44;;;;;;;3.92;2.05;;;;;;;;;;5076500;28;31266;-74
2021/04/12 01:22:24;;;;;;;6.80;2.30;;;;;;;;;;5081558;28;32341;-74
2021/04/12 01:25:09;;;;;;;5.55;2.35;;;;;;;;;;5078674;28;32079;-74
2021/04/12 01:27:38;;;;;;;5.22;2.20;;;;;;;;;;5081029;28;32103;-75
2021/04/12 01:30:29;;;;;;;5.55;2.00;;;;;;;;;;5081350;28;32641;-74
2021/04/12 01:32:55;;;;;;;6.22;1.80;;;;;;;;;;5077297;28;32050;-74
2021/04/12 01:35:47;;;;;;;5.95;1.52;;;;;;;;;;5081394;28;31882;-75
2021/04/12 01:38:26;;;;;;;3.03;1.90;;;;;;;;;;5080769;28;32969;-74
2021/04/12 01:41:01;;;;;;;4.60;1.60;;;;;;;;;;5080948;28;35186;-72
2021/04/12 01:43:59;;;;;;;2.50;1.27;;;;;;;;;;5078361;28;32176;-72
2021/04/12 01:46:43;;;;;;;4.50;1.70;;;;;;;;;;5079098;28;31775;-73
2021/04/12 01:49:17;;;;;;;5.25;1.45;;;;;;;;;;5080663;28;32021;-74
2021/04/12 01:52:01;;;;;;;5.38;1.88;;;;;;;;;;5081041;28;32609;-74
2021/04/12 01:54:36;;;;;;;4.32;1.85;;;;;;;;;;5079400;28;32334;-74
2021/04/12 01:57:01;;;;;;;6.75;1.60;;;;;;;;;;5081077;28;31984;-74
2021/04/12 01:59:39;;;;;;;3.35;1.38;;;;;;;;;;5081181;28;32165;-74
2021/04/12 02:02:23;;;;;;;3.95;2.00;;;;;;;;;;5081731;28;32428;-74
2021/04/12 02:05:07;;;;;;;4.90;1.80;;;;;;;;;;5084528;28;32222;-74
2021/04/12 02:07:36;;;;;;;2.65;1.63;;;;;;;;;;5084579;28;32051;-74
2021/04/12 02:10:25;;;;;;;5.15;1.60;;;;;;;;;;5084757;28;32088;-74
2021/04/12 02:12:57;;;;;;;4.40;2.10;;;;;;;;;;5083182;28;31236;-74
2021/04/12 02:15:25;;;;;;;5.30;1.50;;;;;;;;;;5084170;28;33143;-74
2021/04/12 02:18:09;;;;;;;4.80;1.70;;;;;;;;;;5084288;28;32024;-74
2021/04/12 02:20:53;;;;;;;7.40;1.77;;;;;;;;;;5081552;28;32090;-75
2021/04/12 02:23:37;;;;;;;5.70;1.52;;;;;;;;;;5084147;28;32619;-74
2021/04/12 02:26:03;;;;;;;5.13;1.83;;;;;;;;;;5083613;28;33109;-75
2021/04/12 02:28:47;;;;;;;10.07;1.77;;;;;;;;;;5081444;28;32598;-74
2021/04/12 02:31:24;;;;;;;4.30;1.73;;;;;;;;;;5083936;28;32166;-75
2021/04/12 02:33:58;;;;;;;4.88;1.60;;;;;;;;;;5080994;28;32284;-74
2021/04/12 02:36:35;;;;;;;2.88;1.27;;;;;;;;;;5081196;28;32798;-74
2021/04/12 02:39:15;;;;;;;1.83;0.90;;;;;;;;;;5083208;28;31788;-74
2021/04/12 02:41:55;;;;;;;0.95;0.80;;;;;;;;;;5083422;28;32203;-74
2021/04/12 02:44:38;;;;;;;5.50;1.35;;;;;;;;;;5083645;28;33626;-75
2021/04/12 02:47:10;;;;;;;1.80;0.82;;;;;;;;;;5082445;28;31408;-75
2021/04/12 02:49:45;;;;;;;2.08;0.85;;;;;;;;;;5080966;28;31955;-74
2021/04/12 02:52:11;;;;;;;1.70;0.82;;;;;;;;;;5083281;28;32005;-74
2021/04/12 02:54:55;;;;;;;1.10;0.80;;;;;;;;;;5083685;28;32760;-75
2021/04/12 02:57:39;;;;;;;3.08;0.85;;;;;;;;;;5083462;28;33155;-75
2021/04/12 03:00:23;;;;;;;1.95;0.75;;;;;;;;;;5083553;28;32094;-76
2021/04/12 03:02:48;;;;;;;;;;;;;;;;;;5084927;28;33045;-74
2021/04/12 03:05:43;;;;;;;2.17;0.88;;;;;;;;;;5083255;28;32826;-75
2021/04/12 03:08:11;;;;;;;4.78;1.10;;;;;;;;;;5081074;28;32140;-75
2021/04/12 03:11:01;;;;;;;2.30;0.90;;;;;;;;;;5080788;28;32051;-75
2021/04/12 03:13:27;;;;;;;2.20;0.95;;;;;;;;;;5082191;28;32955;-74
2021/04/12 03:15:58;;;;;;;2.72;1.15;;;;;;;;;;5083406;28;33181;-76
2021/04/12 03:18:25;;;;;;;3.50;1.20;;;;;;;;;;5081998;28;32183;-76
2021/04/12 03:21:09;;;;;;;3.72;1.48;;;;;;;;;;5083216;28;33093;-75
2021/04/12 03:23:41;;;;;;;3.15;1.40;;;;;;;;;;5083118;28;31785;-75
2021/04/12 03:26:07;;;;;;;1.50;1.13;;;;;;;;;;5080521;28;33636;-75
2021/04/12 03:29:02;;;;;;;2.45;1.38;;;;;;;;;;5080554;28;33069;-75
2021/04/12 03:31:47;;;;;;;2.00;1.20;;;;;;;;;;5081661;28;32487;-73
2021/04/12 03:34:16;;;;;;;6.55;1.30;;;;;;;;;;5083233;28;31998;-75
2021/04/12 03:36:54;;;;;;;3.50;1.38;;;;;;;;;;5083190;28;33566;-75
2021/04/12 03:39:40;;;;;;;3.95;1.20;;;;;;;;;;5080331;28;32265;-74
2021/04/12 03:42:24;;;;;;;1.40;1.15;;;;;;;;;;5081064;28;31762;-75
2021/04/12 03:45:08;;;;;;;6.63;2.22;;;;;;;;;;5083050;28;32011;-75
2021/04/12 03:47:34;;;;;;;2.80;1.42;;;;;;;;;;5082835;28;32720;-75
2021/04/12 03:50:07;;;;;;;1.67;1.15;;;;;;;;;;5082274;28;32852;-73
2021/04/12 03:52:48;;;;;;;6.82;1.88;;;;;;;;;;5083168;28;31726;-74
2021/04/12 03:55:22;;;;;;;5.60;1.50;;;;;;;;;;5082728;28;31979;-74
2021/04/12 03:57:59;;;;;;;8.65;1.70;;;;;;;;;;5082800;28;32577;-75
2021/04/12 04:00:39;;;;;;;3.75;1.48;;;;;;;;;;5081309;28;31002;-75
2021/04/12 04:03:23;;;;;;;5.90;1.95;;;;;;;;;;5079581;28;31909;-73
2021/04/12 04:05:55;;;;;;;4.78;1.95;;;;;;;;;;5082591;28;31981;-75
2021/04/12 04:08:24;;;;;;;3.92;1.35;;;;;;;;;;5079513;28;32647;-73
2021/04/12 04:11:02;;;;;;;4.85;1.70;;;;;;;;;;5082488;28;33117;-75
2021/04/12 04:13:33;;;;;;;2.55;1.17;;;;;;;;;;5081347;28;32019;-75
2021/04/12 04:16:17;;;;;;;4.57;1.58;;;;;;;;;;5079608;28;31685;-75
2021/04/12 04:18:43;;;;;;;2.38;1.42;;;;;;;;;;5082302;28;32612;-74
2021/04/12 04:21:15;;;;;;;6.07;1.52;;;;;;;;;;5081179;28;32224;-75
2021/04/12 04:23:49;;;;;;;3.70;1.25;;;;;;;;;;5082253;28;32069;-75
2021/04/12 04:26:34;;;;;;;4.35;1.20;;;;;;;;;;5079634;28;32095;-73
2021/04/12 04:28:59;;;;;;;;;;;;;;;;;;5065517;28;31292;-74
2021/04/12 04:31:27;;;;;;;3.33;1.17;;;;;;;;;;5081854;28;51698;-74
2021/04/12 04:34:02;;;;;;;3.47;1.10;;;;;;;;;;5082224;28;31891;-74
2021/04/12 04:36:31;;;;;;;3.08;1.35;;;;;;;;;;5082078;28;31958;-73
2021/04/12 04:39:08;;;;;;;6.03;1.67;;;;;;;;;;5082070;28;32726;-74
2021/04/12 04:41:49;;;;;;;4.95;1.40;;;;;;;;;;5081838;28;33232;-74
2021/04/12 04:44:34;;;;;;;7.38;4.22;;;;;;;;;;5081726;28;32864;-74
2021/04/12 04:47:16;;;;;;;4.30;3.05;;;;;;;;;;5081675;28;32023;-74
2021/04/12 04:50:00;;;;;;;6.30;4.20;;;;;;;;;;5078844;28;32586;-73
2021/04/12 04:52:38;;;;;;;4.43;1.70;;;;;;;;;;5081645;28;32239;-74
2021/04/12 04:55:14;;;;;;;4.10;1.48;;;;;;;;;;5081829;28;32396;-74
2021/04/12 04:57:40;;;;;;;2.97;1.30;;;;;;;;;;5081646;28;32013;-74
2021/04/12 05:00:16;;;;;;;4.50;1.67;;;;;;;;;;5081717;28;32624;-73
2021/04/12 05:02:42;;;;;;;5.40;1.40;;;;;;;;;;5081537;28;33160;-73
2021/04/12 05:05:10;;;;;;;6.75;1.67;;;;;;;;;;5081361;28;32857;-73
2021/04/12 05:07:36;;;;;;;4.07;1.60;;;;;;;;;;5081514;28;33068;-73
2021/04/12 05:10:20;;;;;;;5.18;1.52;;;;;;;;;;5081649;28;33238;-73
2021/04/12 05:12:46;;;;;;;5.97;2.17;;;;;;;;;;5081650;28;32171;-73
2021/04/12 05:15:29;;;;;;;5.35;1.17;;;;;;;;;;5081471;28;31919;-73
2021/04/12 05:18:14;;;;;;;3.88;1.33;;;;;;;;;;5081427;28;33017;-73
2021/04/12 05:20:45;;;;;;;5.32;1.05;;;;;;;;;;5081448;28;32658;-73
2021/04/12 05:23:16;;;;;;;4.60;1.40;;;;;;;;;;5078659;28;32264;-73
2021/04/12 05:26:00;;;;;;;2.42;1.00;;;;;;;;;;5081327;28;32008;-73
2021/04/12 05:28:47;;;;;;;2.58;1.13;;;;;;;;;;5081319;28;32105;-72
2021/04/12 05:31:34;;;;;;;3.78;1.30;;;;;;;;;;5081096;28;32524;-72
2021/04/12 05:34:15;;;;;;;3.72;1.30;;;;;;;;;;5078347;28;32200;-74
2021/04/12 05:36:46;;;;;;;2.53;1.30;;;;;;;;;;5080374;28;32801;-73
2021/04/12 05:39:25;;;;;;;4.90;1.88;;;;;;;;;;5078378;28;32085;-74
2021/04/12 05:41:54;;;;;;;9.15;1.80;;;;;;;;;;5078417;28;33583;-74
2021/04/12 05:44:20;;;;;;;3.10;1.33;;;;;;;;;;5080864;28;32421;-74
2021/04/12 05:47:04;;;;;;;4.50;1.77;;;;;;;;;;5080652;28;31884;-74
2021/04/12 05:49:29;;;;;;;3.45;1.40;;;;;;;;;;5078298;28;32297;-75
2021/04/12 05:52:10;;;;;;;6.25;1.63;;;;;;;;;;5080886;28;33329;-76
2021/04/12 05:54:53;;;;;;;3.50;1.48;;;;;;;;;;5080624;28;33107;-76
2021/04/12 05:57:27;;;;;;;6.10;2.58;;;;;;;;;;5080905;28;32834;-76
2021/04/12 06:00:12;;;;;;;9.07;3.83;;;;;;;;;;5079683;28;31719;-75
2021/04/12 06:02:40;;;;;;;6.90;3.83;;;;;;;;;;5080743;28;33425;-74
2021/04/12 06:05:13;;;;;;;6.70;2.35;;;;;;;;;;5080921;28;32401;-76
2021/04/12 06:07:38;;;;;;;5.28;1.60;;;;;;;;;;5080776;28;31910;-68
2021/04/12 06:10:16;;;;;;;5.95;1.83;;;;;;;;;;5081020;28;32015;-75
2021/04/12 06:13:00;;;;;;;3.70;1.48;;;;;;;;;;5080679;28;33392;-77
2021/04/12 06:15:35;;;;;;;4.55;1.42;;;;;;;;;;5080865;28;31989;-75
2021/04/12 06:18:22;;;;;;;4.32;1.30;;;;;;;;;;5080663;28;33083;-75
2021/04/12 06:20:55;;;;;;;14.57;1.52;;;;;;;;;;5077957;28;31922;-75
2021/04/12 06:23:36;;;;;;;3.22;1.60;;;;;;;;;;5078778;28;37814;-76
2021/04/12 06:26:20;;;;;;;2.67;1.52;;;;;;;;;;5077724;28;32130;-78
2021/04/12 06:29:11;;;;;;;6.22;1.90;;;;;;;;;;5077814;28;31885;-75
2021/04/12 06:31:48;;;;;;;2.55;1.38;;;;;;;;;;5078001;28;32105;-76
2021/04/12 06:34:33;;;;;;;2.58;1.38;;;;;;;;;;5080619;28;32603;-75
2021/04/12 06:37:06;;;;;;;3.25;1.90;;;;;;;;;;5077725;28;33147;-74
2021/04/12 06:39:46;;;;;;;2.47;1.40;;;;;;;;;;5077936;28;31935;-74
2021/04/12 06:42:30;;;;;;;5.88;2.17;;;;;;;;;;5077381;28;36693;-74
2021/04/12 06:45:14;;;;;;;5.97;2.30;;;;;;;;;;5080272;28;32609;-74
2021/04/12 06:47:58;;;;;;;3.17;1.60;;;;;;;;;;5079307;28;31113;-74
2021/04/12 06:50:43;;;;;;;2.70;1.50;;;;;;;;;;5083330;28;32046;-73
2021/04/12 06:53:37;;;;;;;4.55;1.98;;;;;;;;;;5083857;28;32176;-73
2021/04/12 06:56:09;;;;;;;5.25;1.98;;;;;;;;;;5079746;28;33383;-74
2021/04/12 06:58:53;;;;;;;9.82;2.10;;;;;;;;;;5083792;28;32245;-74
2021/04/12 07:01:19;;;;;;;;;;;;;;;;;;5085077;28;32657;-74
2021/04/12 07:04:03;;;;;;;3.40;1.65;;;;;;;;;;5083099;28;32241;-73
2021/04/12 07:06:38;;;;;;;6.30;1.73;;;;;;;;;;5083445;28;32655;-73
2021/04/12 07:09:19;;;;;;;4.97;1.92;;;;;;;;;;5083472;28;32148;-73
2021/04/12 07:12:04;;;;;;;3.50;1.80;;;;;;;;;;5082293;28;32267;-74
2021/04/12 07:15:05;;;;;;;4.55;1.73;;;;;;;;;;5083570;28;32108;-74
2021/04/12 07:17:43;;;;;;;3.03;1.80;;;;;;;;;;5084018;28;32374;-74
2021/04/12 07:20:27;;;;;;;2.58;1.65;;;;;;;;;;5086301;28;32200;-73
2021/04/12 07:23:02;;;;;;;8.25;2.05;;;;;;;;;;5083951;28;31738;-70
2021/04/12 07:25:59;;;;;;;3.00;1.60;;;;;;;;;;5081963;28;30501;-72
2021/04/12 07:28:43;;;;;;;2.42;1.42;;;;;;;;;;5080650;28;32599;-74
2021/04/12 07:31:24;;;;;;;3.92;1.30;;;;;;;;;;5083168;28;36598;-74
2021/04/12 07:34:02;;;;;;;4.43;1.20;;;;;;;;;;5083210;28;32636;-74
2021/04/12 07:36:39;;;;;;;3.20;1.50;;;;;;;;;;5083384;28;31975;-74
2021/04/12 07:39:14;;;;;;;2.05;1.40;;;;;;;;;;5080287;28;32557;-73
2021/04/12 07:41:54;;;;;;;3.33;1.27;;;;;;;;;;5083284;28;32317;-73
2021/04/12 07:44:39;;;;;;;5.45;1.50;;;;;;;;;;5082956;28;31881;-74
2021/04/12 07:47:13;;;;;;;4.93;1.60;;;;;;;;;;5082853;28;33024;-73
2021/04/12 07:49:58;;;;;;;5.18;1.20;;;;;;;;;;5082891;28;32623;-75
2021/04/12 07:52:32;;;;;;;3.90;1.20;;;;;;;;;;5083434;28;32375;-74
2021/04/12 07:55:04;;;;;;;3.33;1.20;;;;;;;;;;5081375;28;32184;-75
2021/04/12 07:57:48;;;;;;;3.97;1.30;;;;;;;;;;5082625;28;32965;-74
2021/04/12 08:00:23;;;;;;;6.18;1.42;;;;;;;;;;5082217;28;33528;-73
2021/04/12 08:02:49;;;;;;;6.00;1.38;;;;;;;;;;5082681;28;32144;-74
2021/04/12 08:05:33;;;;;;;2.90;1.50;;;;;;;;;;5082483;28;31976;-77
2021/04/12 08:07:58;;;;;;;;;;;;;;;;;;5083919;28;32007;-72
2021/04/12 08:10:39;;;;;;;8.85;1.30;;;;;;;;;;5083556;28;32780;-73
2021/04/12 08:13:14;;;;;;;2.70;1.00;;;;;;;;;;5079682;28;36782;-74
2021/04/12 08:16:00;;;;;;;5.05;1.05;;;;;;;;;;5082406;28;32899;-74
2021/04/12 08:18:29;;;;;;;8.25;2.25;;;;;;;;;;5082325;28;33077;-75
2021/04/12 08:21:13;;;;;;;5.43;1.63;;;;;;;;;;5081004;28;32396;-74
2021/04/12 08:23:39;;;;;;;9.85;3.40;;;;;;;;;;5081897;28;32340;-73
2021/04/12 08:26:05;;;;;;;4.82;1.38;;;;;;;;;;5082214;28;31949;-74
2021/04/12 08:28:48;;;;;;;3.17;1.67;;;;;;;;;;5079699;28;32088;-73
2021/04/12 08:31:32;;;;;;;3.28;1.20;;;;;;;;;;5082078;28;33654;-73
2021/04/12 08:33:58;;;;;;;;;;;;;;;;;;5083131;28;32997;-73
2021/04/12 08:36:23;;;;;;;5.80;1.55;;;;;;;;;;5082407;28;31754;-73
2021/04/12 08:39:17;;;;;;;4.18;1.58;;;;;;;;;;5081870;28;32071;-73
2021/04/12 08:42:01;;;;;;;9.80;1.60;;;;;;;;;;5079385;28;33602;-73
2021/04/12 08:44:27;;;;;;;6.18;1.58;;;;;;;;;;5081918;28;32217;-74
2021/04/12 08:47:14;;;;;;;7.10;1.42;;;;;;;;;;5080544;28;31726;-74
2021/04/12 08:50:00;;;;;;;7.18;1.73;;;;;;;;;;5079287;28;32751;-73
2021/04/12 08:52:38;;;;;;;5.60;1.40;;;;;;;;;;5081408;28;33127;-73
2021/04/12 08:55:13;;;;;;;4.95;1.52;;;;;;;;;;5079013;28;32166;-77
2021/04/12 08:57:45;;;;;;;4.13;1.65;;;;;;;;;;5078926;28;31947;-74
2021/04/12 09:00:37;;;;;;;5.63;1.80;;;;;;;;;;5081944;28;32672;-73
2021/04/12 09:03:14;;;;;;;4.53;1.33;;;;;;;;;;5078876;28;32657;-74
2021/04/12 09:05:52;;;;;;;5.80;1.48;;;;;;;;;;5081778;28;32274;-73
2021/04/12 09:08:24;;;;;;;3.75;2.05;;;;;;;;;;5080218;28;30714;-73
2021/04/12 09:10:49;;;;;;;6.80;2.05;;;;;;;;;;5081524;28;32045;-75
2021/04/12 09:13:34;;;;;;;5.72;2.10;;;;;;;;;;5080956;28;32616;-73
2021/04/12 09:16:19;;;;;;;7.15;1.90;;;;;;;;;;5081738;28;33088;-74
2021/04/12 09:19:21;;;;;;;4.18;1.48;;;;;;;;;;5081355;28;31877;-73
2021/04/12 09:21:59;;;;;;;2.63;1.85;;;;;;;;;;5081281;28;32009;-74
2021/04/12 09:24:46;;;;;;;4.30;1.98;;;;;;;;;;5080975;28;33577;-74
2021/04/12 09:27:31;;;;;;;3.25;1.75;;;;;;;;;;5079459;28;32313;-73
2021/04/12 09:30:15;;;;;;;4.88;1.77;;;;;;;;;;5081422;28;32528;-73
2021/04/12 09:32:40;;;;;;;;;;;;;;;;;;5082567;28;32197;-73
2021/04/12 09:35:11;;;;;;;3.42;1.52;;;;;;;;;;5081474;28;32663;-73
2021/04/12 09:37:56;;;;;;;3.22;0.90;;;;;;;;;;5078480;28;32370;-71
2021/04/12 09:40:43;;;;;;;5.35;2.20;;;;;;;;;;5081016;28;32012;-74
2021/04/12 09:43:27;;;;;;;4.43;1.83;;;;;;;;;;5081094;28;32228;-73
2021/04/12 09:46:25;;;;;;;3.05;1.90;;;;;;;;;;5079666;28;31323;-74
2021/04/12 09:49:10;;;;;;;2.70;1.75;;;;;;;;;;5080683;28;32290;-73
2021/04/12 09:51:55;;;;;;;5.28;1.83;;;;;;;;;;5079694;28;31755;-73
2021/04/12 09:54:29;;;;;;;2.15;1.50;;;;;;;;;;5080441;28;31922;-73
2021/04/12 09:57:01;;;;;;;4.60;1.92;;;;;;;;;;5081703;28;33578;-73
2021/04/12 09:59:56;;;;;;;3.53;1.80;;;;;;;;;;5082041;28;32196;-73
2021/04/12 10:02:24;;;;;;;3.95;1.52;;;;;;;;;;5080546;28;32856;-73
2021/04/12 10:04:53;;;;;;;3.53;1.77;;;;;;;;;;5080827;28;33050;-73
2021/04/12 10:07:38;;;;;;;5.15;1.85;;;;;;;;;;5080279;28;33496;-73
2021/04/12 10:10:12;;;;;;;4.30;2.05;;;;;;;;;;5080272;28;33212;-73
2021/04/12 10:12:38;;;;;;;4.70;2.60;;;;;;;;;;5080487;28;31829;-73
2021/04/12 10:15:13;;;;;;;6.47;3.13;;;;;;;;;;5079819;28;32921;-73
2021/04/12 10:17:57;;;;;;;6.70;3.20;;;;;;;;;;5080642;28;32490;-74
2021/04/12 10:20:32;;;;;;;4.60;2.30;;;;;;;;;;5080748;28;33208;-75
2021/04/12 10:23:16;;;;;;;4.03;2.75;;;;;;;;;;5081405;28;32784;-74
2021/04/12 10:25:54;;;;;;;10.45;2.70;;;;;;;;;;5083906;28;32016;-74
2021/04/12 10:28:28;;;;;;;5.07;3.00;;;;;;;;;;5081412;28;32808;-75
2021/04/12 10:31:01;;;;;;;6.35;2.88;;;;;;;;;;5083759;28;32190;-72
2021/04/12 10:33:30;;;;;;;5.90;3.00;;;;;;;;;;5084076;28;32062;-72
2021/04/12 10:35:59;;;;;;;7.75;2.92;;;;;;;;;;5083894;28;37570;-74
2021/04/12 10:38:33;;;;;;;9.90;3.08;;;;;;;;;;5083834;28;33515;-74
2021/04/12 10:41:13;;;;;;;5.80;2.92;;;;;;;;;;5083879;28;33195;-75
2021/04/12 10:44:03;;;;;;;7.85;3.20;;;;;;;;;;5083394;28;31972;-75
2021/04/12 10:46:39;;;;;;;5.50;2.85;;;;;;;;;;5081047;28;31969;-72
2021/04/12 10:49:10;;;;;;;6.10;3.17;;;;;;;;;;5080974;28;33344;-74
2021/04/12 10:51:54;;;;;;;6.13;3.13;;;;;;;;;;5083956;28;32853;-73
2021/04/12 10:54:38;;;;;;;4.45;2.97;;;;;;;;;;5083247;28;31913;-74
2021/04/12 10:57:07;;;;;;;5.22;3.20;;;;;;;;;;5083417;28;32097;-73
2021/04/12 10:59:37;;;;;;;5.22;3.13;;;;;;;;;;5083540;28;33228;-74
2021/04/12 11:02:15;;;;;;;8.88;3.75;;;;;;;;;;5083724;28;32209;-73
2021/04/12 11:05:03;;;;;;;7.35;3.38;;;;;;;;;;5083507;28;32174;-73
2021/04/12 11:07:41;;;;;;;6.53;4.05;;;;;;;;;;5083395;28;33058;-74
2021/04/12 11:10:10;;;;;;;8.93;4.30;;;;;;;;;;5083397;28;32358;-74
2021/04/12 11:12:45;;;;;;;8.27;4.43;;;;;;;;;;5083667;28;32400;-74
2021/04/12 11:15:26;;;;;;;8.13;4.55;;;;;;;;;;5081917;28;31981;-73
2021/04/12 11:17:54;;;;;;;7.53;4.18;;;;;;;;;;5083576;28;32281;-73
2021/04/12 11:20:43;;;;;;;5.07;3.83;;;;;;;;;;5083232;28;33578;-74
2021/04/12 11:23:31;;;;;;;6.78;4.30;;;;;;;;;;5082394;28;31983;-73
2021/04/12 11:26:03;;;;;;;5.70;3.47;;;;;;;;;;5081186;28;30364;-74
2021/04/12 11:28:34;;;;;;;7.55;4.45;;;;;;;;;;5083262;28;31912;-73
2021/04/12 11:31:03;;;;;;;8.00;4.50;;;;;;;;;;5080521;28;32613;-72
2021/04/12 11:33:46;;;;;;;8.90;4.32;;;;;;;;;;5083320;28;33202;-73
2021/04/12 11:36:12;;;;;;;8.50;4.90;;;;;;;;;;5079680;28;31709;-69
2021/04/12 11:38:42;;;;;;;7.32;4.43;;;;;;;;;;5089043;28;31885;-73
2021/04/12 11:41:16;;;;;;;11.80;5.22;;;;;;;;;;5090863;28;32674;-74
2021/04/12 11:43:45;;;;;;;7.40;3.95;;;;;;;;;;5085197;28;38246;-71
2021/04/12 11:46:30;;;;;;;9.43;4.07;;;;;;;;;;5082819;28;33158;-74
2021/04/12 11:49:08;;;;;;;12.00;4.43;;;;;;;;;;5080164;28;32055;-71
2021/04/12 11:51:37;;;;;;;9.07;5.65;;;;;;;;;;5082709;28;32499;-72
2021/04/12 11:54:03;;;;;;;7.95;4.38;;;;;;;;;;5082638;28;32400;-71
2021/04/12 11:56:38;;;;;;;10.23;4.75;;;;;;;;;;5080112;28;32987;-71
2021/04/12 11:59:10;;;;;;;7.57;4.10;;;;;;;;;;5079933;28;32914;-72
2021/04/12 12:01:57;;;;;;;5.97;3.88;;;;;;;;;;5079737;28;33718;-71
2021/04/12 12:04:29;;;;;;;8.27;4.68;;;;;;;;;;5081304;28;33136;-72
2021/04/12 12:06:57;;;;;;;7.40;4.13;;;;;;;;;;5079983;28;32101;-75
2021/04/12 12:09:36;;;;;;;8.48;4.20;;;;;;;;;;5082690;28;32977;-75
2021/04/12 12:12:25;;;;;;;7.47;4.32;;;;;;;;;;5079748;28;33554;-74
2021/04/12 12:14:55;;;;;;;9.43;4.65;;;;;;;;;;5082496;28;33293;-73
2021/04/12 12:17:23;;;;;;;9.40;3.90;;;;;;;;;;5080160;28;32602;-75
2021/04/12 12:19:54;;;;;;;7.60;4.53;;;;;;;;;;5079926;28;32036;-75
2021/04/12 12:22:22;;;;;;;6.07;3.92;;;;;;;;;;5082023;28;33773;-75
2021/04/12 12:24:54;;;;;;;6.60;3.90;;;;;;;;;;5081789;28;33066;-74
2021/04/12 12:27:23;;;;;;;8.38;3.47;;;;;;;;;;5081794;28;31979;-74
2021/04/12 12:29:51;;;;;;;7.20;3.75;;;;;;;;;;5081173;28;31964;-75
2021/04/12 12:32:23;;;;;;;7.43;3.78;;;;;;;;;;5082111;28;32474;-73
2021/04/12 12:34:55;;;;;;;5.85;3.75;;;;;;;;;;5082023;28;32213;-75
2021/04/12 12:37:33;;;;;;;7.38;4.18;;;;;;;;;;5079339;28;31990;-75
2021/04/12 12:40:00;;;;;;;6.80;3.45;;;;;;;;;;5081906;28;32170;-76
2021/04/12 12:42:37;;;;;;;6.20;3.75;;;;;;;;;;5081922;28;32574;-75
2021/04/12 12:45:17;;;;;;;4.93;3.58;;;;;;;;;;5078929;28;32119;-75
2021/04/12 12:47:47;;;;;;;6.07;4.18;;;;;;;;;;5080812;28;32804;-76
2021/04/12 12:50:21;;;;;;;7.55;4.20;;;;;;;;;;5081699;28;32650;-75
2021/04/12 12:52:50;;;;;;;7.53;4.93;;;;;;;;;;5081393;28;33572;-76
2021/04/12 12:55:21;;;;;;;4.82;3.35;;;;;;;;;;5081745;28;32226;-75
2021/04/12 12:57:47;;;;;;;10.07;3.63;;;;;;;;;;5081629;28;31913;-74
2021/04/12 13:00:17;;;;;;;6.82;3.22;;;;;;;;;;5081488;28;31932;-73
2021/04/12 13:02:44;;;;;;;5.95;3.20;;;;;;;;;;5081230;28;33526;-73
2021/04/12 13:05:25;;;;;;;4.35;3.13;;;;;;;;;;5081476;28;32330;-73
2021/04/12 13:08:05;;;;;;;4.88;3.05;;;;;;;;;;5078762;28;31853;-73
2021/04/12 13:10:34;;;;;;;7.50;3.47;;;;;;;;;;5078809;28;32585;-74
2021/04/12 13:12:59;;;;;;;11.40;2.97;;;;;;;;;;5081131;28;32505;-74
2021/04/12 13:15:25;;;;;;;5.43;3.13;;;;;;;;;;5081672;28;32281;-74
2021/04/12 13:17:52;;;;;;;5.25;3.50;;;;;;;;;;5081535;28;32066;-73
2021/04/12 13:20:30;;;;;;;4.40;3.20;;;;;;;;;;5081443;28;31943;-73
2021/04/12 13:23:07;;;;;;;7.82;3.10;;;;;;;;;;5081661;28;33550;-74
2021/04/12 13:25:40;;;;;;;3.45;2.40;;;;;;;;;;5081150;28;33073;-74
2021/04/12 13:28:23;;;;;;;5.35;3.40;;;;;;;;;;5081362;28;31962;-74
2021/04/12 13:31:01;;;;;;;4.20;2.65;;;;;;;;;;5081006;28;32006;-73
2021/04/12 13:33:33;;;;;;;5.00;2.90;;;;;;;;;;5081210;28;32568;-74
2021/04/12 13:36:11;;;;;;;4.50;2.70;;;;;;;;;;5080857;28;37433;-73
2021/04/12 13:38:39;;;;;;;4.30;2.67;;;;;;;;;;5081199;28;31896;-74
2021/04/12 13:41:07;;;;;;;5.57;2.40;;;;;;;;;;5080025;28;31827;-73
2021/04/12 13:43:34;;;;;;;3.30;2.65;;;;;;;;;;5080982;28;32524;-74
2021/04/12 13:46:30;;;;;;;5.32;3.28;;;;;;;;;;5079571;28;30570;-74
2021/04/12 13:49:07;;;;;;;7.45;3.65;;;;;;;;;;5079835;28;31723;-73
2021/04/12 13:51:39;;;;;;;4.90;2.92;;;;;;;;;;5078303;28;32199;-73
2021/04/12 13:54:14;;;;;;;5.63;2.92;;;;;;;;;;5080311;28;32531;-73
2021/04/12 13:56:45;;;;;;;4.80;2.85;;;;;;;;;;5080848;28;32231;-73
2021/04/12 13:59:23;;;;;;;4.78;3.83;;;;;;;;;;5083448;28;31969;-73
2021/04/12 14:01:52;;;;;;;5.28;2.88;;;;;;;;;;5084661;28;31940;-73
2021/04/12 14:04:20;;;;;;;4.90;2.72;;;;;;;;;;5084155;28;33574;-74
2021/04/12 14:06:55;;;;;;;3.63;2.22;;;;;;;;;;5083954;28;32264;-74
2021/04/12 14:09:26;;;;;;;4.40;2.63;;;;;;;;;;5083811;28;31885;-74
2021/04/12 14:11:58;;;;;;;6.25;2.42;;;;;;;;;;5084332;28;32072;-72
2021/04/12 14:14:30;;;;;;;5.13;2.90;;;;;;;;;;5084115;28;32715;-72
2021/04/12 14:16:58;;;;;;;5.05;2.75;;;;;;;;;;5084189;28;32209;-72
2021/04/12 14:19:25;;;;;;;5.70;2.72;;;;;;;;;;5084051;28;31884;-72
2021/04/12 14:21:59;;;;;;;4.35;2.58;;;;;;;;;;5084079;28;32036;-73
2021/04/12 14:24:31;;;;;;;3.13;2.13;;;;;;;;;;5081399;28;32311;-72
2021/04/12 14:27:05;;;;;;;6.00;2.72;;;;;;;;;;5083862;28;32221;-71
2021/04/12 14:29:39;;;;;;;4.47;2.58;;;;;;;;;;5082713;28;30285;-74
2021/04/12 14:32:10;;;;;;;7.30;2.90;;;;;;;;;;5084381;28;32089;-71
2021/04/12 14:34:41;;;;;;;7.93;3.10;;;;;;;;;;5083881;28;32621;-72
2021/04/12 14:37:10;;;;;;;4.40;2.05;;;;;;;;;;5083358;28;32060;-71
2021/04/12 14:39:36;;;;;;;3.40;2.20;;;;;;;;;;5083679;28;31981;-71
2021/04/12 14:42:04;;;;;;;4.53;2.70;;;;;;;;;;5083339;28;31892;-71
2021/04/12 14:44:34;;;;;;;2.95;2.30;;;;;;;;;;5083412;28;32555;-73
2021/04/12 14:47:01;;;;;;;4.50;2.60;;;;;;;;;;5083921;28;33080;-70
2021/04/12 14:49:46;;;;;;;4.50;2.78;;;;;;;;;;5083577;28;33021;-71
2021/04/12 14:52:12;;;;;;;6.40;2.38;;;;;;;;;;5083615;28;32135;-70
2021/04/12 14:54:42;;;;;;;3.95;2.30;;;;;;;;;;5083924;28;32678;-69
2021/04/12 14:57:13;;;;;;;5.38;2.90;;;;;;;;;;5083732;28;31892;-70
2021/04/12 14:59:42;;;;;;;5.55;2.30;;;;;;;;;;5083352;28;32884;-69
2021/04/12 15:02:23;;;;;;;5.10;2.17;;;;;;;;;;5082858;28;31924;-70
2021/04/12 15:05:00;;;;;;;6.80;3.30;;;;;;;;;;5080475;28;32573;-69
2021/04/12 15:07:35;;;;;;;4.43;1.90;;;;;;;;;;5083319;28;31728;-67
2021/04/12 15:10:10;;;;;;;2.60;1.88;;;;;;;;;;5083491;28;31917;-68
2021/04/12 15:12:37;;;;;;;7.95;2.80;;;;;;;;;;5083267;28;31979;-71
2021/04/12 15:15:06;;;;;;;6.20;3.40;;;;;;;;;;5083452;28;32278;-70
2021/04/12 15:17:35;;;;;;;4.47;2.20;;;;;;;;;;5083307;28;33192;-71
2021/04/12 15:20:06;;;;;;;6.72;2.72;;;;;;;;;;5082868;28;31875;-72
2021/04/12 15:22:51;;;;;;;7.25;3.03;;;;;;;;;;5082706;28;32064;-70
2021/04/12 15:25:37;;;;;;;5.38;2.33;;;;;;;;;;5083349;28;32579;-71
2021/04/12 15:28:19;;;;;;;4.60;2.67;;;;;;;;;;5082759;28;33149;-73
2021/04/12 15:30:54;;;;;;;3.83;2.58;;;;;;;;;;5080621;28;31853;-70
2021/04/12 15:33:22;;;;;;;5.95;2.17;;;;;;;;;;5081443;28;31769;-71
2021/04/12 15:35:51;;;;;;;4.40;2.90;;;;;;;;;;5082514;28;32645;-69
2021/04/12 15:38:21;;;;;;;5.97;2.45;;;;;;;;;;5082894;28;32164;-72
2021/04/12 15:40:49;;;;;;;8.43;3.33;;;;;;;;;;5082968;28;32963;-71